sensor_id;sensor_type;location;lat;lon;timestamp;P1;durP1;ratioP1;P2;durP2;ratioP2
2956;SDS011;1488;51.548;7.222;2023-06-05T00:01:23;1.33;;;0.97;;
2956;SDS011;1488;51.548;7.222;2023-06-05T00:03:50;1.17;;;1.00;;
2956;SDS011;1488;51.548;7.222;2023-06-05T00:06:18;1.30;;;1.03;;
2956;SDS011;1488;51.548;7.222;2023-06-05T00:08:45;1.33;;;0.87;;
2956;SDS011;1488;51.548;7.222;2023-06-05T00:11:12;1.23;;;1.10;;
2956;SDS011;1488;51.548;7.222;2023-06-05T00:13:38;1.10;;;0.97;;
2956;SDS011;1488;51.548;7.222;2023-06-05T00:16:05;1.20;;;1.03;;
2956;SDS011;1488;51.548;7.222;2023-06-05T00:18:34;1.40;;;1.10;;
2956;SDS011;1488;51.548;7.222;2023-06-05T00:21:01;1.33;;;1.17;;
2956;SDS011;1488;51.548;7.222;2023-06-05T00:23:28;1.20;;;1.00;;
2956;SDS011;1488;51.548;7.222;2023-06-05T00:25:55;1.40;;;1.20;;
2956;SDS011;1488;51.548;7.222;2023-06-05T00:28:23;1.20;;;0.90;;
2956;SDS011;1488;51.548;7.222;2023-06-05T00:30:51;1.10;;;1.00;;
2956;SDS011;1488;51.548;7.222;2023-06-05T00:33:17;1.20;;;1.00;;
2956;SDS011;1488;51.548;7.222;2023-06-05T00:35:45;1.20;;;1.00;;
2956;SDS011;1488;51.548;7.222;2023-06-05T00:38:12;1.33;;;1.20;;
2956;SDS011;1488;51.548;7.222;2023-06-05T00:40:40;1.10;;;1.00;;
2956;SDS011;1488;51.548;7.222;2023-06-05T00:43:06;1.20;;;1.00;;
2956;SDS011;1488;51.548;7.222;2023-06-05T00:45:33;1.47;;;1.17;;
2956;SDS011;1488;51.548;7.222;2023-06-05T00:48:00;1.60;;;1.27;;
2956;SDS011;1488;51.548;7.222;2023-06-05T00:50:27;1.17;;;1.07;;
2956;SDS011;1488;51.548;7.222;2023-06-05T00:52:57;5.10;;;1.10;;
2956;SDS011;1488;51.548;7.222;2023-06-05T00:55:25;1.23;;;1.10;;
2956;SDS011;1488;51.548;7.222;2023-06-05T00:57:52;1.57;;;1.00;;
2956;SDS011;1488;51.548;7.222;2023-06-05T01:00:20;1.10;;;0.83;;
2956;SDS011;1488;51.548;7.222;2023-06-05T01:02:48;1.20;;;1.10;;
2956;SDS011;1488;51.548;7.222;2023-06-05T01:05:18;1.30;;;1.20;;
2956;SDS011;1488;51.548;7.222;2023-06-05T01:07:45;1.10;;;1.00;;
2956;SDS011;1488;51.548;7.222;2023-06-05T01:10:14;1.30;;;1.20;;
2956;SDS011;1488;51.548;7.222;2023-06-05T01:12:41;1.70;;;1.00;;
2956;SDS011;1488;51.548;7.222;2023-06-05T01:15:12;1.20;;;1.00;;
2956;SDS011;1488;51.548;7.222;2023-06-05T01:17:41;1.20;;;1.00;;
2956;SDS011;1488;51.548;7.222;2023-06-05T01:20:12;1.30;;;1.00;;
2956;SDS011;1488;51.548;7.222;2023-06-05T01:22:39;1.30;;;1.07;;
2956;SDS011;1488;51.548;7.222;2023-06-05T01:25:07;1.30;;;1.13;;
2956;SDS011;1488;51.548;7.222;2023-06-05T01:27:38;1.20;;;1.10;;
2956;SDS011;1488;51.548;7.222;2023-06-05T01:30:12;1.20;;;1.00;;
2956;SDS011;1488;51.548;7.222;2023-06-05T01:32:46;1.20;;;0.90;;
2956;SDS011;1488;51.548;7.222;2023-06-05T01:35:18;1.17;;;0.90;;
2956;SDS011;1488;51.548;7.222;2023-06-05T01:37:52;1.13;;;1.03;;
2956;SDS011;1488;51.548;7.222;2023-06-05T01:40:22;1.30;;;1.07;;
2956;SDS011;1488;51.548;7.222;2023-06-05T01:42:50;1.30;;;1.20;;
2956;SDS011;1488;51.548;7.222;2023-06-05T01:45:20;1.20;;;1.00;;
2956;SDS011;1488;51.548;7.222;2023-06-05T01:47:47;1.50;;;1.00;;
2956;SDS011;1488;51.548;7.222;2023-06-05T01:50:15;1.43;;;1.30;;
2956;SDS011;1488;51.548;7.222;2023-06-05T01:52:43;1.10;;;0.80;;
2956;SDS011;1488;51.548;7.222;2023-06-05T01:55:15;1.10;;;1.00;;
2956;SDS011;1488;51.548;7.222;2023-06-05T01:57:46;1.03;;;0.87;;
2956;SDS011;1488;51.548;7.222;2023-06-05T02:00:13;1.43;;;1.20;;
2956;SDS011;1488;51.548;7.222;2023-06-05T02:02:41;1.23;;;1.07;;
2956;SDS011;1488;51.548;7.222;2023-06-05T02:05:08;1.20;;;1.00;;
2956;SDS011;1488;51.548;7.222;2023-06-05T02:07:35;1.10;;;0.90;;
2956;SDS011;1488;51.548;7.222;2023-06-05T02:10:05;1.30;;;1.20;;
2956;SDS011;1488;51.548;7.222;2023-06-05T02:12:32;1.20;;;1.10;;
2956;SDS011;1488;51.548;7.222;2023-06-05T02:15:01;1.20;;;1.07;;
2956;SDS011;1488;51.548;7.222;2023-06-05T02:17:28;1.23;;;1.00;;
2956;SDS011;1488;51.548;7.222;2023-06-05T02:19:55;1.27;;;1.00;;
2956;SDS011;1488;51.548;7.222;2023-06-05T02:22:21;1.20;;;1.00;;
2956;SDS011;1488;51.548;7.222;2023-06-05T02:24:49;1.20;;;1.10;;
2956;SDS011;1488;51.548;7.222;2023-06-05T02:27:16;1.10;;;0.90;;
2956;SDS011;1488;51.548;7.222;2023-06-05T02:29:44;1.17;;;1.00;;
2956;SDS011;1488;51.548;7.222;2023-06-05T02:32:12;1.10;;;0.90;;
2956;SDS011;1488;51.548;7.222;2023-06-05T02:34:39;1.13;;;1.03;;
2956;SDS011;1488;51.548;7.222;2023-06-05T02:37:06;1.20;;;1.10;;
2956;SDS011;1488;51.548;7.222;2023-06-05T02:39:33;1.10;;;0.87;;
2956;SDS011;1488;51.548;7.222;2023-06-05T02:42:00;1.40;;;1.30;;
2956;SDS011;1488;51.548;7.222;2023-06-05T02:44:27;1.20;;;1.00;;
2956;SDS011;1488;51.548;7.222;2023-06-05T02:46:54;1.20;;;1.10;;
2956;SDS011;1488;51.548;7.222;2023-06-05T02:49:22;1.20;;;1.03;;
2956;SDS011;1488;51.548;7.222;2023-06-05T02:51:49;1.27;;;1.07;;
2956;SDS011;1488;51.548;7.222;2023-06-05T02:54:16;1.13;;;0.90;;
2956;SDS011;1488;51.548;7.222;2023-06-05T02:56:42;1.40;;;1.13;;
2956;SDS011;1488;51.548;7.222;2023-06-05T02:59:09;1.40;;;1.30;;
2956;SDS011;1488;51.548;7.222;2023-06-05T03:01:36;1.23;;;1.10;;
2956;SDS011;1488;51.548;7.222;2023-06-05T03:04:03;1.30;;;1.20;;
2956;SDS011;1488;51.548;7.222;2023-06-05T03:06:33;1.20;;;0.97;;
2956;SDS011;1488;51.548;7.222;2023-06-05T03:09:00;1.23;;;1.13;;
2956;SDS011;1488;51.548;7.222;2023-06-05T03:11:27;1.10;;;0.90;;
2956;SDS011;1488;51.548;7.222;2023-06-05T03:13:54;1.17;;;1.00;;
2956;SDS011;1488;51.548;7.222;2023-06-05T03:16:21;1.57;;;1.17;;
2956;SDS011;1488;51.548;7.222;2023-06-05T03:18:49;1.20;;;1.00;;
2956;SDS011;1488;51.548;7.222;2023-06-05T03:21:15;1.23;;;1.03;;
2956;SDS011;1488;51.548;7.222;2023-06-05T03:23:43;1.23;;;1.13;;
2956;SDS011;1488;51.548;7.222;2023-06-05T03:26:11;1.20;;;1.00;;
2956;SDS011;1488;51.548;7.222;2023-06-05T03:28:37;1.20;;;1.10;;
2956;SDS011;1488;51.548;7.222;2023-06-05T03:31:04;1.30;;;1.20;;
2956;SDS011;1488;51.548;7.222;2023-06-05T03:33:31;1.17;;;0.90;;
2956;SDS011;1488;51.548;7.222;2023-06-05T03:35:58;1.10;;;0.90;;
2956;SDS011;1488;51.548;7.222;2023-06-05T03:38:25;1.27;;;1.10;;
2956;SDS011;1488;51.548;7.222;2023-06-05T03:40:53;1.30;;;1.17;;
2956;SDS011;1488;51.548;7.222;2023-06-05T03:43:20;1.10;;;0.90;;
2956;SDS011;1488;51.548;7.222;2023-06-05T03:45:49;1.13;;;0.90;;
2956;SDS011;1488;51.548;7.222;2023-06-05T03:48:16;1.10;;;1.00;;
2956;SDS011;1488;51.548;7.222;2023-06-05T03:50:45;1.27;;;1.03;;
2956;SDS011;1488;51.548;7.222;2023-06-05T03:53:12;1.20;;;0.90;;
2956;SDS011;1488;51.548;7.222;2023-06-05T03:55:40;1.20;;;1.10;;
2956;SDS011;1488;51.548;7.222;2023-06-05T03:58:19;1.47;;;1.00;;
2956;SDS011;1488;51.548;7.222;2023-06-05T04:00:47;1.20;;;1.00;;
2956;SDS011;1488;51.548;7.222;2023-06-05T04:03:14;2.27;;;1.20;;
2956;SDS011;1488;51.548;7.222;2023-06-05T04:05:41;1.10;;;0.93;;
2956;SDS011;1488;51.548;7.222;2023-06-05T04:08:08;1.83;;;1.50;;
2956;SDS011;1488;51.548;7.222;2023-06-05T04:10:36;1.20;;;1.00;;
2956;SDS011;1488;51.548;7.222;2023-06-05T04:13:03;1.63;;;1.17;;
2956;SDS011;1488;51.548;7.222;2023-06-05T04:15:32;1.20;;;1.10;;
2956;SDS011;1488;51.548;7.222;2023-06-05T04:18:00;1.10;;;1.00;;
2956;SDS011;1488;51.548;7.222;2023-06-05T04:20:26;1.30;;;1.13;;
2956;SDS011;1488;51.548;7.222;2023-06-05T04:22:53;1.57;;;1.13;;
2956;SDS011;1488;51.548;7.222;2023-06-05T04:25:20;1.30;;;1.20;;
2956;SDS011;1488;51.548;7.222;2023-06-05T04:27:48;1.33;;;1.07;;
2956;SDS011;1488;51.548;7.222;2023-06-05T04:30:16;1.83;;;1.60;;
2956;SDS011;1488;51.548;7.222;2023-06-05T04:32:45;2.60;;;2.40;;
2956;SDS011;1488;51.548;7.222;2023-06-05T04:35:19;6.50;;;3.63;;
2956;SDS011;1488;51.548;7.222;2023-06-05T04:37:46;2.63;;;2.27;;
2956;SDS011;1488;51.548;7.222;2023-06-05T04:40:13;4.80;;;2.80;;
2956;SDS011;1488;51.548;7.222;2023-06-05T04:42:41;3.30;;;2.30;;
2956;SDS011;1488;51.548;7.222;2023-06-05T04:45:08;2.13;;;1.70;;
2956;SDS011;1488;51.548;7.222;2023-06-05T04:47:35;1.60;;;1.50;;
2956;SDS011;1488;51.548;7.222;2023-06-05T04:50:05;1.83;;;1.73;;
2956;SDS011;1488;51.548;7.222;2023-06-05T04:52:32;4.63;;;2.10;;
2956;SDS011;1488;51.548;7.222;2023-06-05T04:55:00;2.37;;;1.60;;
2956;SDS011;1488;51.548;7.222;2023-06-05T04:57:27;1.73;;;1.43;;
2956;SDS011;1488;51.548;7.222;2023-06-05T04:59:54;1.70;;;1.60;;
2956;SDS011;1488;51.548;7.222;2023-06-05T05:02:21;1.83;;;1.63;;
2956;SDS011;1488;51.548;7.222;2023-06-05T05:04:49;1.60;;;1.50;;
2956;SDS011;1488;51.548;7.222;2023-06-05T05:07:17;1.80;;;1.67;;
2956;SDS011;1488;51.548;7.222;2023-06-05T05:09:44;2.70;;;1.67;;
2956;SDS011;1488;51.548;7.222;2023-06-05T05:12:11;2.03;;;1.63;;
2956;SDS011;1488;51.548;7.222;2023-06-05T05:14:38;1.70;;;1.60;;
2956;SDS011;1488;51.548;7.222;2023-06-05T05:17:06;1.50;;;1.40;;
2956;SDS011;1488;51.548;7.222;2023-06-05T05:19:33;1.83;;;1.73;;
2956;SDS011;1488;51.548;7.222;2023-06-05T05:22:04;1.73;;;1.53;;
2956;SDS011;1488;51.548;7.222;2023-06-05T05:27:54;1.60;;;1.40;;
2956;SDS011;1488;51.548;7.222;2023-06-05T05:30:21;1.90;;;1.60;;
2956;SDS011;1488;51.548;7.222;2023-06-05T05:32:48;3.70;;;1.67;;
2956;SDS011;1488;51.548;7.222;2023-06-05T05:35:16;2.53;;;1.53;;
2956;SDS011;1488;51.548;7.222;2023-06-05T05:37:42;4.13;;;1.70;;
2956;SDS011;1488;51.548;7.222;2023-06-05T05:40:10;1.63;;;1.53;;
2956;SDS011;1488;51.548;7.222;2023-06-05T05:42:38;1.83;;;1.30;;
2956;SDS011;1488;51.548;7.222;2023-06-05T05:45:07;1.67;;;1.50;;
2956;SDS011;1488;51.548;7.222;2023-06-05T05:47:34;1.60;;;1.43;;
2956;SDS011;1488;51.548;7.222;2023-06-05T05:50:04;1.47;;;1.37;;
2956;SDS011;1488;51.548;7.222;2023-06-05T05:52:31;1.80;;;1.70;;
2956;SDS011;1488;51.548;7.222;2023-06-05T05:54:58;1.60;;;1.50;;
2956;SDS011;1488;51.548;7.222;2023-06-05T05:57:27;1.70;;;1.60;;
2956;SDS011;1488;51.548;7.222;2023-06-05T05:59:54;2.20;;;1.60;;
2956;SDS011;1488;51.548;7.222;2023-06-05T06:02:23;3.80;;;3.13;;
2956;SDS011;1488;51.548;7.222;2023-06-05T06:04:50;9.00;;;3.60;;
2956;SDS011;1488;51.548;7.222;2023-06-05T06:07:16;8.23;;;2.63;;
2956;SDS011;1488;51.548;7.222;2023-06-05T06:09:43;2.33;;;2.13;;
2956;SDS011;1488;51.548;7.222;2023-06-05T06:12:11;7.90;;;2.00;;
2956;SDS011;1488;51.548;7.222;2023-06-05T06:14:38;1.70;;;1.57;;
2956;SDS011;1488;51.548;7.222;2023-06-05T06:17:05;1.93;;;1.77;;
2956;SDS011;1488;51.548;7.222;2023-06-05T06:19:38;8.37;;;2.70;;
2956;SDS011;1488;51.548;7.222;2023-06-05T06:22:07;7.00;;;2.30;;
2956;SDS011;1488;51.548;7.222;2023-06-05T06:24:37;3.10;;;2.40;;
2956;SDS011;1488;51.548;7.222;2023-06-05T06:27:03;4.00;;;2.43;;
2956;SDS011;1488;51.548;7.222;2023-06-05T06:29:31;3.93;;;2.43;;
2956;SDS011;1488;51.548;7.222;2023-06-05T06:31:58;7.93;;;3.00;;
2956;SDS011;1488;51.548;7.222;2023-06-05T06:34:25;3.53;;;3.17;;
2956;SDS011;1488;51.548;7.222;2023-06-05T06:36:53;3.43;;;2.20;;
2956;SDS011;1488;51.548;7.222;2023-06-05T06:39:21;2.63;;;2.43;;
2956;SDS011;1488;51.548;7.222;2023-06-05T06:41:49;2.40;;;2.20;;
2956;SDS011;1488;51.548;7.222;2023-06-05T06:44:18;3.30;;;1.80;;
2956;SDS011;1488;51.548;7.222;2023-06-05T06:46:45;3.20;;;2.10;;
2956;SDS011;1488;51.548;7.222;2023-06-05T06:49:12;1.73;;;1.53;;
2956;SDS011;1488;51.548;7.222;2023-06-05T06:51:38;1.90;;;1.80;;
2956;SDS011;1488;51.548;7.222;2023-06-05T06:54:07;3.30;;;1.87;;
2956;SDS011;1488;51.548;7.222;2023-06-05T06:56:33;3.13;;;2.20;;
2956;SDS011;1488;51.548;7.222;2023-06-05T06:59:05;3.90;;;1.87;;
2956;SDS011;1488;51.548;7.222;2023-06-05T07:01:36;2.37;;;2.00;;
2956;SDS011;1488;51.548;7.222;2023-06-05T07:04:09;3.00;;;1.80;;
2956;SDS011;1488;51.548;7.222;2023-06-05T07:06:35;2.80;;;2.07;;
2956;SDS011;1488;51.548;7.222;2023-06-05T07:09:02;3.20;;;1.70;;
2956;SDS011;1488;51.548;7.222;2023-06-05T07:11:31;1.93;;;1.73;;
2956;SDS011;1488;51.548;7.222;2023-06-05T07:13:58;6.50;;;1.97;;
2956;SDS011;1488;51.548;7.222;2023-06-05T07:16:25;2.50;;;1.80;;
2956;SDS011;1488;51.548;7.222;2023-06-05T07:18:52;3.33;;;1.73;;
2956;SDS011;1488;51.548;7.222;2023-06-05T07:21:20;12.63;;;2.60;;
2956;SDS011;1488;51.548;7.222;2023-06-05T07:23:47;2.00;;;1.80;;
2956;SDS011;1488;51.548;7.222;2023-06-05T07:26:16;2.60;;;1.97;;
2956;SDS011;1488;51.548;7.222;2023-06-05T07:28:44;2.50;;;1.97;;
2956;SDS011;1488;51.548;7.222;2023-06-05T07:31:13;5.00;;;1.60;;
2956;SDS011;1488;51.548;7.222;2023-06-05T07:33:40;2.40;;;1.90;;
2956;SDS011;1488;51.548;7.222;2023-06-05T07:36:08;2.23;;;1.90;;
2956;SDS011;1488;51.548;7.222;2023-06-05T07:38:35;2.73;;;1.80;;
2956;SDS011;1488;51.548;7.222;2023-06-05T07:41:03;4.10;;;1.77;;
2956;SDS011;1488;51.548;7.222;2023-06-05T07:43:33;2.90;;;1.80;;
2956;SDS011;1488;51.548;7.222;2023-06-05T07:46:01;3.60;;;3.30;;
2956;SDS011;1488;51.548;7.222;2023-06-05T07:48:29;6.23;;;4.40;;
2956;SDS011;1488;51.548;7.222;2023-06-05T07:50:56;5.87;;;4.37;;
2956;SDS011;1488;51.548;7.222;2023-06-05T07:53:23;6.53;;;3.77;;
2956;SDS011;1488;51.548;7.222;2023-06-05T07:55:50;6.30;;;4.10;;
2956;SDS011;1488;51.548;7.222;2023-06-05T07:58:17;5.60;;;3.40;;
2956;SDS011;1488;51.548;7.222;2023-06-05T08:00:44;4.43;;;2.90;;
2956;SDS011;1488;51.548;7.222;2023-06-05T08:03:13;5.97;;;3.20;;
2956;SDS011;1488;51.548;7.222;2023-06-05T08:05:45;4.53;;;2.90;;
2956;SDS011;1488;51.548;7.222;2023-06-05T08:08:12;4.20;;;3.20;;
2956;SDS011;1488;51.548;7.222;2023-06-05T08:10:39;7.87;;;3.93;;
2956;SDS011;1488;51.548;7.222;2023-06-05T08:13:07;10.90;;;2.87;;
2956;SDS011;1488;51.548;7.222;2023-06-05T08:15:34;4.27;;;2.50;;
2956;SDS011;1488;51.548;7.222;2023-06-05T08:18:01;3.60;;;2.50;;
2956;SDS011;1488;51.548;7.222;2023-06-05T08:20:29;3.93;;;2.50;;
2956;SDS011;1488;51.548;7.222;2023-06-05T08:22:56;3.80;;;2.53;;
2956;SDS011;1488;51.548;7.222;2023-06-05T08:25:23;3.90;;;2.73;;
2956;SDS011;1488;51.548;7.222;2023-06-05T08:27:50;2.17;;;2.07;;
2956;SDS011;1488;51.548;7.222;2023-06-05T08:30:17;6.80;;;2.30;;
2956;SDS011;1488;51.548;7.222;2023-06-05T08:32:43;4.10;;;2.30;;
2956;SDS011;1488;51.548;7.222;2023-06-05T08:35:11;3.23;;;2.33;;
2956;SDS011;1488;51.548;7.222;2023-06-05T08:37:39;2.30;;;1.90;;
2956;SDS011;1488;51.548;7.222;2023-06-05T08:40:06;2.60;;;2.40;;
2956;SDS011;1488;51.548;7.222;2023-06-05T08:42:35;3.77;;;2.67;;
2956;SDS011;1488;51.548;7.222;2023-06-05T08:45:03;2.63;;;2.20;;
2956;SDS011;1488;51.548;7.222;2023-06-05T08:47:32;2.83;;;1.90;;
2956;SDS011;1488;51.548;7.222;2023-06-05T08:50:06;4.93;;;2.23;;
2956;SDS011;1488;51.548;7.222;2023-06-05T08:52:34;2.60;;;2.40;;
2956;SDS011;1488;51.548;7.222;2023-06-05T08:55:05;5.13;;;2.23;;
2956;SDS011;1488;51.548;7.222;2023-06-05T08:57:32;4.27;;;2.60;;
2956;SDS011;1488;51.548;7.222;2023-06-05T09:00:02;4.20;;;1.90;;
2956;SDS011;1488;51.548;7.222;2023-06-05T09:02:32;3.10;;;2.30;;
2956;SDS011;1488;51.548;7.222;2023-06-05T09:04:59;3.47;;;2.27;;
2956;SDS011;1488;51.548;7.222;2023-06-05T09:07:27;4.40;;;2.37;;
2956;SDS011;1488;51.548;7.222;2023-06-05T09:09:56;3.20;;;2.10;;
2956;SDS011;1488;51.548;7.222;2023-06-05T09:12:24;2.73;;;2.47;;
2956;SDS011;1488;51.548;7.222;2023-06-05T09:14:51;4.10;;;2.23;;
2956;SDS011;1488;51.548;7.222;2023-06-05T09:17:17;2.67;;;1.83;;
2956;SDS011;1488;51.548;7.222;2023-06-05T09:19:47;3.97;;;2.37;;
2956;SDS011;1488;51.548;7.222;2023-06-05T09:22:15;2.17;;;1.97;;
2956;SDS011;1488;51.548;7.222;2023-06-05T09:24:57;2.23;;;1.97;;
2956;SDS011;1488;51.548;7.222;2023-06-05T09:27:27;1.97;;;1.70;;
2956;SDS011;1488;51.548;7.222;2023-06-05T09:30:00;2.97;;;1.80;;
2956;SDS011;1488;51.548;7.222;2023-06-05T09:32:29;1.80;;;1.70;;
2956;SDS011;1488;51.548;7.222;2023-06-05T09:34:56;2.83;;;2.50;;
2956;SDS011;1488;51.548;7.222;2023-06-05T09:37:31;3.13;;;1.90;;
2956;SDS011;1488;51.548;7.222;2023-06-05T09:39:59;2.33;;;2.13;;
2956;SDS011;1488;51.548;7.222;2023-06-05T09:42:32;1.80;;;1.53;;
2956;SDS011;1488;51.548;7.222;2023-06-05T09:44:59;2.73;;;2.13;;
2956;SDS011;1488;51.548;7.222;2023-06-05T09:47:26;2.20;;;1.87;;
2956;SDS011;1488;51.548;7.222;2023-06-05T09:49:53;1.97;;;1.77;;
2956;SDS011;1488;51.548;7.222;2023-06-05T09:52:21;2.07;;;1.87;;
2956;SDS011;1488;51.548;7.222;2023-06-05T09:54:47;1.73;;;1.63;;
2956;SDS011;1488;51.548;7.222;2023-06-05T09:57:15;1.93;;;1.83;;
2956;SDS011;1488;51.548;7.222;2023-06-05T09:59:46;1.80;;;1.70;;
2956;SDS011;1488;51.548;7.222;2023-06-05T10:02:16;2.27;;;2.00;;
2956;SDS011;1488;51.548;7.222;2023-06-05T10:04:45;2.13;;;1.87;;
2956;SDS011;1488;51.548;7.222;2023-06-05T10:07:13;1.90;;;1.70;;
2956;SDS011;1488;51.548;7.222;2023-06-05T10:09:40;2.03;;;1.83;;
2956;SDS011;1488;51.548;7.222;2023-06-05T10:12:08;1.93;;;1.77;;
2956;SDS011;1488;51.548;7.222;2023-06-05T10:14:36;2.33;;;1.80;;
2956;SDS011;1488;51.548;7.222;2023-06-05T10:17:09;2.13;;;1.93;;
2956;SDS011;1488;51.548;7.222;2023-06-05T10:19:40;2.10;;;1.80;;
2956;SDS011;1488;51.548;7.222;2023-06-05T10:22:07;2.37;;;2.13;;
2956;SDS011;1488;51.548;7.222;2023-06-05T10:24:36;4.20;;;2.07;;
2956;SDS011;1488;51.548;7.222;2023-06-05T10:33:20;3.67;;;1.80;;
2956;SDS011;1488;51.548;7.222;2023-06-05T10:35:57;2.50;;;1.60;;
2956;SDS011;1488;51.548;7.222;2023-06-05T10:38:31;2.00;;;1.43;;
2956;SDS011;1488;51.548;7.222;2023-06-05T10:41:00;1.80;;;1.70;;
2956;SDS011;1488;51.548;7.222;2023-06-05T10:43:29;2.10;;;1.90;;
2956;SDS011;1488;51.548;7.222;2023-06-05T10:45:57;1.73;;;1.60;;
2956;SDS011;1488;51.548;7.222;2023-06-05T10:51:33;2.43;;;1.70;;
2956;SDS011;1488;51.548;7.222;2023-06-05T10:54:03;2.33;;;2.13;;
2956;SDS011;1488;51.548;7.222;2023-06-05T10:59:24;2.57;;;1.83;;
2956;SDS011;1488;51.548;7.222;2023-06-05T11:07:34;1.83;;;1.73;;
2956;SDS011;1488;51.548;7.222;2023-06-05T11:10:06;1.63;;;1.53;;
2956;SDS011;1488;51.548;7.222;2023-06-05T11:12:53;1.93;;;1.63;;
2956;SDS011;1488;51.548;7.222;2023-06-05T11:15:36;2.83;;;1.63;;
2956;SDS011;1488;51.548;7.222;2023-06-05T11:20:56;2.00;;;1.90;;
2956;SDS011;1488;51.548;7.222;2023-06-05T11:23:26;1.67;;;1.57;;
2956;SDS011;1488;51.548;7.222;2023-06-05T11:25:55;1.57;;;1.47;;
2956;SDS011;1488;51.548;7.222;2023-06-05T11:28:42;2.00;;;1.70;;
2956;SDS011;1488;51.548;7.222;2023-06-05T11:31:09;2.47;;;1.90;;
2956;SDS011;1488;51.548;7.222;2023-06-05T11:33:37;1.80;;;1.70;;
2956;SDS011;1488;51.548;7.222;2023-06-05T11:36:05;2.23;;;2.03;;
2956;SDS011;1488;51.548;7.222;2023-06-05T11:38:38;1.50;;;1.30;;
2956;SDS011;1488;51.548;7.222;2023-06-05T11:41:05;1.83;;;1.53;;
2956;SDS011;1488;51.548;7.222;2023-06-05T11:43:40;2.13;;;1.80;;
2956;SDS011;1488;51.548;7.222;2023-06-05T11:46:08;1.60;;;1.50;;
2956;SDS011;1488;51.548;7.222;2023-06-05T11:48:42;2.10;;;1.90;;
2956;SDS011;1488;51.548;7.222;2023-06-05T11:51:10;4.83;;;1.40;;
2956;SDS011;1488;51.548;7.222;2023-06-05T11:53:43;1.70;;;1.60;;
2956;SDS011;1488;51.548;7.222;2023-06-05T11:56:14;1.70;;;1.60;;
2956;SDS011;1488;51.548;7.222;2023-06-05T11:58:43;2.10;;;1.70;;
2956;SDS011;1488;51.548;7.222;2023-06-05T12:01:11;1.83;;;1.70;;
2956;SDS011;1488;51.548;7.222;2023-06-05T12:03:42;2.67;;;2.00;;
2956;SDS011;1488;51.548;7.222;2023-06-05T12:06:10;2.00;;;1.53;;
2956;SDS011;1488;51.548;7.222;2023-06-05T12:08:40;2.03;;;1.50;;
2956;SDS011;1488;51.548;7.222;2023-06-05T12:11:20;4.87;;;1.80;;
2956;SDS011;1488;51.548;7.222;2023-06-05T12:13:48;1.73;;;1.63;;
2956;SDS011;1488;51.548;7.222;2023-06-05T12:16:16;2.13;;;1.70;;
2956;SDS011;1488;51.548;7.222;2023-06-05T12:18:51;3.17;;;1.87;;
2956;SDS011;1488;51.548;7.222;2023-06-05T12:21:18;1.50;;;1.30;;
2956;SDS011;1488;51.548;7.222;2023-06-05T12:23:48;3.10;;;1.40;;
2956;SDS011;1488;51.548;7.222;2023-06-05T12:26:15;1.97;;;1.60;;
2956;SDS011;1488;51.548;7.222;2023-06-05T12:28:43;3.03;;;1.53;;
2956;SDS011;1488;51.548;7.222;2023-06-05T12:31:11;1.93;;;1.83;;
2956;SDS011;1488;51.548;7.222;2023-06-05T12:33:59;2.30;;;1.50;;
2956;SDS011;1488;51.548;7.222;2023-06-05T12:36:27;1.63;;;1.50;;
2956;SDS011;1488;51.548;7.222;2023-06-05T12:39:00;3.30;;;2.00;;
2956;SDS011;1488;51.548;7.222;2023-06-05T12:41:30;1.53;;;1.43;;
2956;SDS011;1488;51.548;7.222;2023-06-05T14:48:24;2.07;;;1.33;;
2956;SDS011;1488;51.548;7.222;2023-06-05T14:50:51;1.70;;;1.60;;
2956;SDS011;1488;51.548;7.222;2023-06-05T14:53:18;3.73;;;1.20;;
2956;SDS011;1488;51.548;7.222;2023-06-05T14:55:45;1.60;;;1.50;;
2956;SDS011;1488;51.548;7.222;2023-06-05T14:58:12;3.70;;;2.37;;
2956;SDS011;1488;51.548;7.222;2023-06-05T15:00:39;3.63;;;1.70;;
2956;SDS011;1488;51.548;7.222;2023-06-05T15:03:06;3.13;;;1.70;;
2956;SDS011;1488;51.548;7.222;2023-06-05T15:05:34;2.70;;;1.87;;
2956;SDS011;1488;51.548;7.222;2023-06-05T15:08:01;1.60;;;1.50;;
2956;SDS011;1488;51.548;7.222;2023-06-05T15:10:30;3.30;;;1.83;;
2956;SDS011;1488;51.548;7.222;2023-06-05T15:12:57;2.27;;;1.73;;
2956;SDS011;1488;51.548;7.222;2023-06-05T15:15:24;4.83;;;1.60;;
2956;SDS011;1488;51.548;7.222;2023-06-05T15:17:51;1.40;;;1.30;;
2956;SDS011;1488;51.548;7.222;2023-06-05T15:20:18;2.73;;;1.40;;
2956;SDS011;1488;51.548;7.222;2023-06-05T15:22:47;2.03;;;1.30;;
2956;SDS011;1488;51.548;7.222;2023-06-05T15:25:14;1.67;;;1.57;;
2956;SDS011;1488;51.548;7.222;2023-06-05T15:27:40;1.93;;;1.70;;
2956;SDS011;1488;51.548;7.222;2023-06-05T15:30:07;2.00;;;1.37;;
2956;SDS011;1488;51.548;7.222;2023-06-05T15:32:35;3.13;;;1.40;;
2956;SDS011;1488;51.548;7.222;2023-06-05T15:35:01;1.97;;;1.50;;
2956;SDS011;1488;51.548;7.222;2023-06-05T15:37:28;2.90;;;1.43;;
2956;SDS011;1488;51.548;7.222;2023-06-05T15:39:57;3.30;;;1.63;;
2956;SDS011;1488;51.548;7.222;2023-06-05T15:42:28;1.73;;;1.43;;
2956;SDS011;1488;51.548;7.222;2023-06-05T15:45:05;1.57;;;1.40;;
2956;SDS011;1488;51.548;7.222;2023-06-05T15:47:32;2.57;;;1.53;;
2956;SDS011;1488;51.548;7.222;2023-06-05T15:50:00;2.23;;;1.60;;
2956;SDS011;1488;51.548;7.222;2023-06-05T15:52:27;1.47;;;1.37;;
2956;SDS011;1488;51.548;7.222;2023-06-05T15:54:56;1.60;;;1.40;;
2956;SDS011;1488;51.548;7.222;2023-06-05T15:57:24;5.93;;;1.60;;
2956;SDS011;1488;51.548;7.222;2023-06-05T15:59:51;1.77;;;1.60;;
2956;SDS011;1488;51.548;7.222;2023-06-05T16:02:18;2.23;;;1.40;;
2956;SDS011;1488;51.548;7.222;2023-06-05T16:04:46;2.80;;;1.40;;
2956;SDS011;1488;51.548;7.222;2023-06-05T16:07:13;1.60;;;1.50;;
2956;SDS011;1488;51.548;7.222;2023-06-05T16:09:41;1.67;;;1.53;;
2956;SDS011;1488;51.548;7.222;2023-06-05T16:12:09;1.40;;;1.30;;
2956;SDS011;1488;51.548;7.222;2023-06-05T16:14:36;2.33;;;1.70;;
2956;SDS011;1488;51.548;7.222;2023-06-05T16:17:03;1.50;;;1.40;;
2956;SDS011;1488;51.548;7.222;2023-06-05T16:19:31;1.60;;;1.50;;
2956;SDS011;1488;51.548;7.222;2023-06-05T16:21:58;1.80;;;1.30;;
2956;SDS011;1488;51.548;7.222;2023-06-05T16:24:24;1.50;;;1.40;;
2956;SDS011;1488;51.548;7.222;2023-06-05T16:26:51;1.67;;;1.57;;
2956;SDS011;1488;51.548;7.222;2023-06-05T16:29:20;1.47;;;1.20;;
2956;SDS011;1488;51.548;7.222;2023-06-05T16:31:46;1.73;;;1.30;;
2956;SDS011;1488;51.548;7.222;2023-06-05T16:34:13;1.80;;;1.60;;
2956;SDS011;1488;51.548;7.222;2023-06-05T16:36:40;1.60;;;1.30;;
2956;SDS011;1488;51.548;7.222;2023-06-05T16:39:07;1.20;;;1.10;;
2956;SDS011;1488;51.548;7.222;2023-06-05T16:41:35;1.50;;;1.40;;
2956;SDS011;1488;51.548;7.222;2023-06-05T16:44:02;1.60;;;1.50;;
2956;SDS011;1488;51.548;7.222;2023-06-05T16:46:30;1.80;;;1.70;;
2956;SDS011;1488;51.548;7.222;2023-06-05T16:48:58;2.03;;;1.20;;
2956;SDS011;1488;51.548;7.222;2023-06-05T16:51:25;1.57;;;1.47;;
2956;SDS011;1488;51.548;7.222;2023-06-05T16:53:51;1.60;;;1.50;;
2956;SDS011;1488;51.548;7.222;2023-06-05T16:56:18;2.10;;;1.63;;
2956;SDS011;1488;51.548;7.222;2023-06-05T16:58:45;3.00;;;1.50;;
2956;SDS011;1488;51.548;7.222;2023-06-05T17:01:12;2.00;;;1.70;;
2956;SDS011;1488;51.548;7.222;2023-06-05T17:03:40;2.00;;;1.80;;
2956;SDS011;1488;51.548;7.222;2023-06-05T17:06:07;1.80;;;1.40;;
2956;SDS011;1488;51.548;7.222;2023-06-05T17:08:34;1.53;;;1.33;;
2956;SDS011;1488;51.548;7.222;2023-06-05T17:11:01;1.50;;;1.37;;
2956;SDS011;1488;51.548;7.222;2023-06-05T17:13:28;1.40;;;1.30;;
2956;SDS011;1488;51.548;7.222;2023-06-05T17:15:54;1.60;;;1.47;;
2956;SDS011;1488;51.548;7.222;2023-06-05T17:18:21;1.73;;;1.40;;
2956;SDS011;1488;51.548;7.222;2023-06-05T17:20:49;1.47;;;1.37;;
2956;SDS011;1488;51.548;7.222;2023-06-05T17:23:16;1.50;;;1.40;;
2956;SDS011;1488;51.548;7.222;2023-06-05T17:25:43;1.60;;;1.43;;
2956;SDS011;1488;51.548;7.222;2023-06-05T17:28:10;1.67;;;1.57;;
2956;SDS011;1488;51.548;7.222;2023-06-05T17:30:37;2.30;;;1.33;;
2956;SDS011;1488;51.548;7.222;2023-06-05T17:33:04;2.37;;;1.60;;
2956;SDS011;1488;51.548;7.222;2023-06-05T17:35:31;2.10;;;1.30;;
2956;SDS011;1488;51.548;7.222;2023-06-05T17:37:59;2.00;;;1.80;;
2956;SDS011;1488;51.548;7.222;2023-06-05T17:40:26;1.50;;;1.40;;
2956;SDS011;1488;51.548;7.222;2023-06-05T17:42:53;1.30;;;1.20;;
2956;SDS011;1488;51.548;7.222;2023-06-05T17:45:19;2.47;;;1.60;;
2956;SDS011;1488;51.548;7.222;2023-06-05T17:47:46;1.60;;;1.40;;
2956;SDS011;1488;51.548;7.222;2023-06-05T17:50:13;1.37;;;1.27;;